Time;durP1;ratioP1;P1;durP2;ratioP2;P2;SDS_P1;SDS_P2;PMS_P1;PMS_P2;Temp;Humidity;BMP_temperature;BMP_pressure;BME280_temperature;BME280_humidity;BME280_pressure;Samples;Min_cycle;Max_cycle;Signal;HPM_P1;HPM_P2
2022/04/02 00:05:00;;;;;;;2.30;0.50;;;;;;;;;;10424877;28;20230;-73
2022/04/02 00:10:02;;;;;;;1.85;0.50;;;;;;;;;;10426622;28;20215;-74
2022/04/02 00:15:03;;;;;;;0.73;0.52;;;;;;;;;;10423840;28;20305;-73
2022/04/02 00:20:04;;;;;;;2.33;0.70;;;;;;;;;;10426416;28;20204;-73
2022/04/02 00:25:05;;;;;;;1.92;0.57;;;;;;;;;;10423980;28;20203;-74
2022/04/02 00:30:07;;;;;;;0.50;0.50;;;;;;;;;;10424385;28;20219;-73
2022/04/02 00:35:09;;;;;;;0.60;0.60;;;;;;;;;;10424521;28;20218;-74
2022/04/02 00:40:10;;;;;;;1.92;0.60;;;;;;;;;;10424290;28;20237;-74
2022/04/02 00:45:12;;;;;;;0.75;0.55;;;;;;;;;;10438394;28;20199;-73
2022/04/02 00:50:13;;;;;;;2.08;1.10;;;;;;;;;;10424239;28;20215;-74
2022/04/02 00:55:15;;;;;;;1.58;0.60;;;;;;;;;;10421838;28;20384;-73
2022/04/02 01:00:16;;;;;;;0.63;0.40;;;;;;;;;;10421989;28;20742;-73
2022/04/02 01:05:17;;;;;;;1.38;0.57;;;;;;;;;;10420773;28;21074;-74
2022/04/02 01:10:18;;;;;;;0.90;0.60;;;;;;;;;;10405896;28;20218;-73
2022/04/02 01:15:20;;;;;;;2.83;0.70;;;;;;;;;;10421768;28;20206;-74
2022/04/02 01:20:28;;;;;;;1.92;0.70;;;;;;;;;;10419022;28;20700;-74
2022/04/02 01:25:35;;;;;;;1.08;0.57;;;;;;;;;;10439183;28;20199;-74
2022/04/02 01:30:41;;;;;;;1.75;0.57;;;;;;;;;;10421204;28;20216;-74
2022/04/02 01:35:42;;;;;;;1.35;0.73;;;;;;;;;;10419916;28;20257;-74
2022/04/02 01:40:52;;;;;;;0.88;0.73;;;;;;;;;;10435425;28;20206;-74
2022/04/02 01:46:00;;;;;;;2.23;0.60;;;;;;;;;;10433692;28;20199;-73
2022/04/02 01:51:04;;;;;;;0.87;0.87;;;;;;;;;;10433872;28;20597;-73
2022/04/02 01:56:09;;;;;;;0.73;0.70;;;;;;;;;;10419195;28;20726;-73
2022/04/02 02:07:11;;;;;;;0.55;0.55;;;;;;;;;;10416080;28;20222;-73
2022/04/02 02:12:12;;;;;;;1.57;0.73;;;;;;;;;;10419572;28;20196;-73
2022/04/02 02:17:25;;;;;;;2.30;0.80;;;;;;;;;;10435721;28;20294;-73
2022/04/02 02:22:33;;;;;;;1.13;0.70;;;;;;;;;;10436867;28;20230;-73
2022/04/02 02:27:36;;;;;;;1.95;0.77;;;;;;;;;;10434016;28;20209;-73
2022/04/02 02:32:37;;;;;;;3.65;0.88;;;;;;;;;;10420401;28;20229;-74
2022/04/02 02:37:39;;;;;;;2.90;0.70;;;;;;;;;;10434535;28;20265;-74
2022/04/02 02:42:43;;;;;;;1.53;0.80;;;;;;;;;;10432876;28;20207;-73
2022/04/02 02:48:05;;;;;;;1.17;1.13;;;;;;;;;;10417473;28;20241;-73
2022/04/02 02:53:16;;;;;;;2.05;0.85;;;;;;;;;;10433038;28;20223;-74
2022/04/02 02:58:18;;;;;;;2.92;1.15;;;;;;;;;;10435061;28;20291;-73
2022/04/02 03:03:19;;;;;;;1.50;1.03;;;;;;;;;;10419124;28;20316;-73
2022/04/02 03:08:23;;;;;;;4.32;0.98;;;;;;;;;;10434855;28;20218;-72
2022/04/02 03:13:34;;;;;;;3.45;0.90;;;;;;;;;;10415807;28;20207;-73
2022/04/02 03:18:41;;;;;;;2.75;0.98;;;;;;;;;;10434436;28;21373;-73
2022/04/02 03:23:46;;;;;;;1.40;1.00;;;;;;;;;;10433743;28;20556;-73
2022/04/02 03:28:51;;;;;;;0.95;0.95;;;;;;;;;;10416261;28;20651;-74
2022/04/02 03:33:55;;;;;;;1.13;1.00;;;;;;;;;;10433486;28;20265;-74
2022/04/02 03:38:56;;;;;;;0.67;0.67;;;;;;;;;;10436302;28;20199;-74
2022/04/02 03:43:59;;;;;;;3.47;1.38;;;;;;;;;;10426476;28;20278;-73
2022/04/02 03:49:03;;;;;;;0.90;0.85;;;;;;;;;;10423206;28;20211;-73
2022/04/02 03:54:04;;;;;;;2.85;1.17;;;;;;;;;;10426662;28;20219;-74
2022/04/02 03:59:07;;;;;;;4.38;1.00;;;;;;;;;;10424808;28;20211;-74
2022/04/02 04:04:09;;;;;;;1.43;1.10;;;;;;;;;;10421025;28;20602;-74
2022/04/02 04:09:10;;;;;;;1.07;1.03;;;;;;;;;;10421476;28;20210;-72
2022/04/02 04:14:12;;;;;;;3.67;1.10;;;;;;;;;;10440307;28;20197;-74
2022/04/02 04:19:14;;;;;;;2.60;1.23;;;;;;;;;;10439910;28;20207;-72
2022/04/02 04:24:17;;;;;;;3.07;1.00;;;;;;;;;;10414362;28;20293;-74
2022/04/02 04:29:19;;;;;;;2.03;1.10;;;;;;;;;;10414686;28;20972;-72
2022/04/02 04:34:21;;;;;;;1.57;1.00;;;;;;;;;;10435398;28;20219;-74
2022/04/02 04:39:22;;;;;;;1.63;1.00;;;;;;;;;;10423774;28;20219;-72
2022/04/02 04:44:26;;;;;;;1.23;1.05;;;;;;;;;;10421453;28;20780;-73
2022/04/02 04:49:28;;;;;;;0.83;0.80;;;;;;;;;;10436993;28;20298;-73
2022/04/02 04:54:34;;;;;;;2.58;0.98;;;;;;;;;;10438647;28;20563;-73
2022/04/02 04:59:41;;;;;;;3.50;1.33;;;;;;;;;;10438724;28;20199;-73
2022/04/02 05:04:44;;;;;;;1.80;1.33;;;;;;;;;;10439454;28;20245;-74
2022/04/02 05:09:47;;;;;;;2.00;0.93;;;;;;;;;;10422678;28;20267;-73
2022/04/02 05:14:49;;;;;;;2.03;1.10;;;;;;;;;;10438940;28;20210;-73
2022/04/02 05:19:54;;;;;;;0.90;0.90;;;;;;;;;;10437221;28;20551;-73
2022/04/02 05:24:55;;;;;;;1.27;1.10;;;;;;;;;;10435034;28;20325;-73
2022/04/02 05:29:57;;;;;;;4.47;1.47;;;;;;;;;;10422888;28;20242;-73
2022/04/02 05:34:58;;;;;;;2.93;2.37;;;;;;;;;;10422920;28;20207;-73
2022/04/02 05:40:00;;;;;;;1.40;1.08;;;;;;;;;;10419657;28;20200;-73
2022/04/02 05:45:01;;;;;;;3.53;1.47;;;;;;;;;;10419550;28;20226;-73
2022/04/02 05:50:04;;;;;;;1.63;1.52;;;;;;;;;;10404487;28;20215;-73
2022/04/02 05:55:06;;;;;;;1.37;1.37;;;;;;;;;;10417605;28;20215;-73
2022/04/02 06:00:09;;;;;;;0.80;0.80;;;;;;;;;;10419432;28;20203;-74
2022/04/02 06:05:15;;;;;;;2.57;1.27;;;;;;;;;;10419997;28;20270;-73
2022/04/02 06:10:17;;;;;;;1.40;1.30;;;;;;;;;;10419786;28;20219;-73
2022/04/02 06:15:19;;;;;;;2.30;1.20;;;;;;;;;;10417241;28;20211;-72
2022/04/02 06:20:20;;;;;;;1.10;1.10;;;;;;;;;;10419849;28;20207;-73
2022/04/02 06:25:21;;;;;;;1.30;1.20;;;;;;;;;;10418918;28;20211;-73
2022/04/02 06:30:22;;;;;;;1.60;1.50;;;;;;;;;;10415637;28;20208;-72
2022/04/02 06:35:24;;;;;;;1.65;1.45;;;;;;;;;;10434553;28;20691;-69
2022/04/02 06:40:26;;;;;;;1.85;1.00;;;;;;;;;;10433993;28;20620;-73
2022/04/02 06:45:27;;;;;;;1.02;1.02;;;;;;;;;;10416877;28;20207;-72
2022/04/02 06:50:28;;;;;;;2.45;1.55;;;;;;;;;;10417645;28;20306;-73
2022/04/02 06:55:32;;;;;;;1.47;1.37;;;;;;;;;;10416559;28;20239;-76
2022/04/02 07:00:33;;;;;;;2.80;1.77;;;;;;;;;;10415809;28;20389;-73
2022/04/02 07:05:34;;;;;;;1.85;1.20;;;;;;;;;;10413493;28;20196;-74
2022/04/02 07:10:35;;;;;;;3.50;1.67;;;;;;;;;;10420170;28;20207;-73
2022/04/02 07:15:37;;;;;;;1.70;1.60;;;;;;;;;;10423366;28;20613;-73
2022/04/02 07:20:39;;;;;;;3.03;1.25;;;;;;;;;;10422390;28;20618;-73
2022/04/02 07:25:41;;;;;;;1.83;1.35;;;;;;;;;;10431197;28;20272;-77
2022/04/02 07:30:42;;;;;;;3.22;1.35;;;;;;;;;;10429989;28;20694;-74
2022/04/02 07:35:56;;;;;;;3.80;1.52;;;;;;;;;;10441069;28;20341;-76
2022/04/02 07:41:12;;;;;;;3.22;1.60;;;;;;;;;;10430870;28;20211;-75
2022/04/02 07:46:15;;;;;;;1.65;1.27;;;;;;;;;;10427731;28;20687;-75
2022/04/02 07:51:20;;;;;;;1.60;0.98;;;;;;;;;;10430911;28;20352;-76
2022/04/02 07:56:31;;;;;;;1.20;1.02;;;;;;;;;;10427181;28;20231;-76
2022/04/02 08:01:33;;;;;;;1.52;1.35;;;;;;;;;;10424700;28;20596;-76
2022/04/02 08:06:36;;;;;;;1.00;1.00;;;;;;;;;;10424590;28;20582;-76
2022/04/02 08:11:38;;;;;;;1.38;1.25;;;;;;;;;;10421843;28;20206;-75
2022/04/02 08:16:43;;;;;;;2.30;1.42;;;;;;;;;;10424016;28;20199;-75
2022/04/02 08:21:44;;;;;;;3.03;0.90;;;;;;;;;;10436602;28;21384;-74
2022/04/02 08:26:45;;;;;;;2.80;1.48;;;;;;;;;;10427338;28;20200;-76
2022/04/02 08:31:58;;;;;;;2.17;0.90;;;;;;;;;;10425370;28;20255;-76
2022/04/02 08:37:07;;;;;;;0.80;0.80;;;;;;;;;;10420317;28;20732;-75
2022/04/02 08:42:22;;;;;;;1.70;1.40;;;;;;;;;;10422552;28;20257;-75
2022/04/02 08:47:29;;;;;;;1.00;1.00;;;;;;;;;;10442954;28;20690;-75
2022/04/02 08:52:49;;;;;;;3.22;1.00;;;;;;;;;;10424030;28;20207;-75
2022/04/02 08:57:50;;;;;;;2.58;1.05;;;;;;;;;;10426992;28;20284;-76
2022/04/02 09:02:57;;;;;;;1.85;1.67;;;;;;;;;;10431616;28;20672;-78
2022/04/02 09:08:16;;;;;;;2.60;2.40;;;;;;;;;;10431286;28;20208;-77
2022/04/02 09:13:29;;;;;;;3.10;1.05;;;;;;;;;;10430877;28;20199;-77
2022/04/02 09:18:37;;;;;;;2.00;1.00;;;;;;;;;;10430598;28;20207;-76
2022/04/02 09:23:51;;;;;;;2.17;1.30;;;;;;;;;;10425172;28;20293;-75
2022/04/02 09:29:11;;;;;;;1.33;1.23;;;;;;;;;;10430911;28;20225;-78
2022/04/02 09:34:33;;;;;;;0.77;0.77;;;;;;;;;;10418582;28;20215;-75
2022/04/02 09:39:51;;;;;;;1.10;1.10;;;;;;;;;;10417154;28;20277;-74
2022/04/02 09:45:03;;;;;;;1.42;0.95;;;;;;;;;;10421047;28;20566;-74
2022/04/02 09:50:04;;;;;;;2.60;1.20;;;;;;;;;;10421461;28;20715;-75
2022/04/02 09:55:07;;;;;;;2.55;1.30;;;;;;;;;;10420113;28;20977;-76
2022/04/02 10:00:09;;;;;;;2.67;1.42;;;;;;;;;;10421453;28;20633;-76
2022/04/02 10:05:19;;;;;;;1.63;1.48;;;;;;;;;;10423484;28;20226;-75
2022/04/02 10:10:23;;;;;;;1.10;1.10;;;;;;;;;;10422983;28;20793;-74
2022/04/02 10:15:25;;;;;;;1.92;1.38;;;;;;;;;;10421564;28;20202;-75
2022/04/02 10:20:30;;;;;;;1.20;1.13;;;;;;;;;;10420456;28;21036;-75
2022/04/02 10:25:33;;;;;;;3.00;1.15;;;;;;;;;;10421053;28;20211;-74
2022/04/02 10:30:35;;;;;;;2.97;1.33;;;;;;;;;;10420168;28;20214;-76
2022/04/02 10:35:38;;;;;;;1.10;1.10;;;;;;;;;;10420157;28;20324;-75
2022/04/02 10:40:42;;;;;;;1.23;0.90;;;;;;;;;;10414744;28;20194;-75
2022/04/02 10:45:43;;;;;;;1.25;0.93;;;;;;;;;;10415066;28;20207;-75
2022/04/02 10:50:45;;;;;;;4.20;0.90;;;;;;;;;;10428532;28;20222;-75
2022/04/02 10:55:47;;;;;;;1.00;0.70;;;;;;;;;;10429840;28;20276;-75
2022/04/02 11:00:48;;;;;;;4.00;0.98;;;;;;;;;;10429409;28;20234;-73
2022/04/02 11:05:49;;;;;;;2.55;1.30;;;;;;;;;;10429755;28;20576;-74
2022/04/02 11:10:50;;;;;;;2.88;1.33;;;;;;;;;;10444516;28;20238;-75
2022/04/02 11:15:53;;;;;;;2.35;1.33;;;;;;;;;;10429305;28;20307;-76
2022/04/02 11:21:01;;;;;;;1.48;1.13;;;;;;;;;;10427151;28;20691;-75
2022/04/02 11:26:04;;;;;;;2.70;1.08;;;;;;;;;;10430867;28;20206;-75
2022/04/02 11:31:05;;;;;;;2.13;1.30;;;;;;;;;;10426333;28;20230;-75
2022/04/02 11:36:14;;;;;;;3.50;0.90;;;;;;;;;;10432490;28;20218;-74
2022/04/02 11:41:20;;;;;;;0.73;0.73;;;;;;;;;;10428867;28;20199;-74
2022/04/02 11:46:23;;;;;;;0.85;0.85;;;;;;;;;;10423443;28;20207;-74
2022/04/02 11:51:29;;;;;;;3.50;3.03;;;;;;;;;;10422953;28;20218;-74
2022/04/02 11:56:32;;;;;;;1.15;1.02;;;;;;;;;;10424329;28;20226;-74
2022/04/02 12:01:43;;;;;;;1.08;0.85;;;;;;;;;;10424165;28;20325;-74
2022/04/02 12:06:45;;;;;;;1.95;1.00;;;;;;;;;;10421924;28;20829;-76
2022/04/02 12:11:53;;;;;;;2.75;1.15;;;;;;;;;;10423814;28;20215;-73
2022/04/02 12:17:05;;;;;;;4.10;1.10;;;;;;;;;;10425502;28;20204;-73
2022/04/02 12:22:19;;;;;;;0.75;0.75;;;;;;;;;;10426223;28;20200;-73
2022/04/02 12:27:21;;;;;;;1.85;0.90;;;;;;;;;;10427899;28;20305;-71
2022/04/02 12:32:30;;;;;;;2.60;1.00;;;;;;;;;;10423211;28;20211;-71
2022/04/02 12:37:32;;;;;;;1.20;1.20;;;;;;;;;;10426991;28;20358;-74
2022/04/02 12:42:37;;;;;;;1.00;1.00;;;;;;;;;;10441406;28;20211;-74
2022/04/02 12:47:38;;;;;;;2.67;0.88;;;;;;;;;;10425381;28;20281;-72
2022/04/02 12:52:47;;;;;;;2.67;0.82;;;;;;;;;;10422755;28;20634;-73
2022/04/02 12:58:00;;;;;;;1.40;1.30;;;;;;;;;;10422294;28;20998;-69
2022/04/02 13:03:03;;;;;;;0.80;0.80;;;;;;;;;;10419830;28;20230;-75
2022/04/02 13:08:05;;;;;;;1.00;0.70;;;;;;;;;;10425542;28;20225;-74
2022/04/02 13:13:07;;;;;;;5.93;0.90;;;;;;;;;;10419768;28;20676;-76
2022/04/02 13:23:37;;;;;;;0.68;0.60;;;;;;;;;;10419584;28;20646;-75
2022/04/02 13:28:41;;;;;;;0.80;0.80;;;;;;;;;;10418863;28;20210;-72
2022/04/02 13:34:01;;;;;;;1.40;0.93;;;;;;;;;;10417865;28;20224;-74
2022/04/02 13:39:09;;;;;;;1.55;0.77;;;;;;;;;;10410650;28;20203;-76
2022/04/02 13:44:10;;;;;;;3.70;0.82;;;;;;;;;;10416581;28;20204;-75
2022/04/02 13:49:12;;;;;;;0.55;0.55;;;;;;;;;;10415764;28;20217;-74
2022/04/02 13:54:32;;;;;;;0.70;0.70;;;;;;;;;;10414560;28;20282;-74
2022/04/02 13:59:36;;;;;;;3.70;0.70;;;;;;;;;;10417661;28;20217;-74
2022/04/02 14:04:37;;;;;;;1.30;1.20;;;;;;;;;;10416968;28;20214;-75
2022/04/02 14:09:41;;;;;;;1.88;0.80;;;;;;;;;;10412567;28;21278;-74
2022/04/02 14:14:56;;;;;;;1.23;0.90;;;;;;;;;;10417091;28;20785;-73
2022/04/02 14:20:08;;;;;;;0.90;0.90;;;;;;;;;;10415570;28;20252;-74
2022/04/02 14:25:18;;;;;;;1.65;0.70;;;;;;;;;;10420441;28;20207;-76
2022/04/02 14:30:31;;;;;;;1.85;1.10;;;;;;;;;;10420226;28;20268;-75
2022/04/02 14:35:45;;;;;;;2.70;1.00;;;;;;;;;;10414558;28;20199;-75
2022/04/02 14:40:56;;;;;;;1.00;0.90;;;;;;;;;;10417974;28;20264;-74
2022/04/02 14:46:20;;;;;;;1.00;0.80;;;;;;;;;;10419388;28;20210;-74
2022/04/02 14:51:47;;;;;;;1.00;1.00;;;;;;;;;;10418680;28;20677;-81
2022/04/02 14:57:02;;;;;;;1.48;1.17;;;;;;;;;;10411668;28;20280;-74
2022/04/02 15:02:22;;;;;;;5.28;1.02;;;;;;;;;;10419224;28;20222;-83
2022/04/02 15:07:23;;;;;;;3.90;1.27;;;;;;;;;;10423449;28;20218;-76
2022/04/02 15:12:25;;;;;;;1.05;0.68;;;;;;;;;;10416386;28;20203;-75
2022/04/02 15:17:35;;;;;;;0.65;0.63;;;;;;;;;;10414369;28;20198;-75
2022/04/02 15:22:37;;;;;;;0.68;0.50;;;;;;;;;;10412664;28;20252;-74
2022/04/02 15:27:48;;;;;;;0.50;0.50;;;;;;;;;;10417848;28;20227;-75
2022/04/02 15:32:49;;;;;;;1.75;0.50;;;;;;;;;;10416238;28;20310;-76
2022/04/02 15:37:50;;;;;;;1.05;0.75;;;;;;;;;;10426657;28;20297;-77
2022/04/02 15:42:55;;;;;;;0.60;0.60;;;;;;;;;;10429351;28;20195;-76
2022/04/02 15:47:57;;;;;;;0.70;0.70;;;;;;;;;;10427127;28;20614;-75
2022/04/02 15:53:15;;;;;;;1.27;0.80;;;;;;;;;;10417959;28;20223;-74
2022/04/02 15:58:16;;;;;;;0.50;0.50;;;;;;;;;;10419881;28;20219;-75
2022/04/02 16:03:32;;;;;;;0.65;0.65;;;;;;;;;;10426915;28;20273;-75
2022/04/02 16:08:33;;;;;;;0.88;0.88;;;;;;;;;;10425720;28;20257;-76
2022/04/02 16:13:38;;;;;;;1.00;1.00;;;;;;;;;;10429405;28;20195;-77
2022/04/02 16:18:40;;;;;;;1.05;1.00;;;;;;;;;;10425510;28;20902;-74
2022/04/02 16:23:42;;;;;;;2.53;1.00;;;;;;;;;;10427289;28;20899;-74
2022/04/02 16:28:46;;;;;;;1.20;1.10;;;;;;;;;;10409941;28;20215;-77
2022/04/02 16:33:48;;;;;;;2.15;1.23;;;;;;;;;;10423314;28;20268;-76
2022/04/02 16:38:57;;;;;;;1.25;1.25;;;;;;;;;;10419875;28;20301;-74
2022/04/02 16:44:15;;;;;;;2.67;1.27;;;;;;;;;;10423288;28;20202;-75
2022/04/02 16:49:17;;;;;;;1.92;1.08;;;;;;;;;;10421775;28;20242;-75
2022/04/02 16:54:18;;;;;;;1.35;1.30;;;;;;;;;;10421980;28;20227;-75
2022/04/02 16:59:19;;;;;;;1.00;1.00;;;;;;;;;;10423370;28;20204;-75
2022/04/02 17:04:22;;;;;;;1.55;0.80;;;;;;;;;;10424185;28;20229;-74
2022/04/02 17:09:24;;;;;;;1.25;0.98;;;;;;;;;;10422523;28;20254;-73
2022/04/02 17:14:28;;;;;;;3.45;0.70;;;;;;;;;;10421976;28;20623;-76
2022/04/02 17:19:31;;;;;;;0.73;0.70;;;;;;;;;;10424550;28;20211;-76
2022/04/02 17:24:32;;;;;;;0.90;0.90;;;;;;;;;;10421693;28;21006;-75
2022/04/02 17:29:35;;;;;;;1.10;1.10;;;;;;;;;;10421744;28;20782;-75
2022/04/02 17:34:54;;;;;;;1.20;1.13;;;;;;;;;;10421499;28;20242;-76
2022/04/02 17:40:04;;;;;;;2.08;1.20;;;;;;;;;;10421338;28;20207;-74
2022/04/02 17:45:16;;;;;;;2.17;1.20;;;;;;;;;;10417949;28;20215;-78
2022/04/02 17:50:24;;;;;;;2.03;1.50;;;;;;;;;;10421878;28;20211;-75
2022/04/02 17:55:36;;;;;;;1.70;0.98;;;;;;;;;;10422672;28;20227;-77
2022/04/02 18:00:38;;;;;;;1.30;1.20;;;;;;;;;;10423038;28;20578;-78
2022/04/02 18:05:40;;;;;;;1.23;1.15;;;;;;;;;;10420737;28;20266;-79
2022/04/02 18:10:42;;;;;;;0.98;0.95;;;;;;;;;;10424223;28;20225;-76
2022/04/02 18:15:43;;;;;;;1.40;1.33;;;;;;;;;;10422492;28;20199;-75
2022/04/02 18:20:45;;;;;;;1.67;1.65;;;;;;;;;;10421653;28;20207;-75
2022/04/02 18:25:47;;;;;;;2.47;1.73;;;;;;;;;;10418779;28;20210;-75
2022/04/02 18:30:48;;;;;;;1.88;1.55;;;;;;;;;;10418828;28;20223;-75
2022/04/02 18:35:49;;;;;;;1.52;1.42;;;;;;;;;;10419125;28;20240;-74
2022/04/02 18:40:50;;;;;;;1.58;1.48;;;;;;;;;;10414430;28;20211;-75
2022/04/02 18:45:51;;;;;;;1.95;1.85;;;;;;;;;;10413641;28;20251;-75
2022/04/02 18:50:53;;;;;;;2.35;2.15;;;;;;;;;;10415471;28;20215;-75
2022/04/02 18:55:54;;;;;;;2.40;2.13;;;;;;;;;;10422049;28;20767;-75
2022/04/02 19:00:56;;;;;;;1.60;1.50;;;;;;;;;;10386457;28;20211;-74
2022/04/02 19:05:57;;;;;;;1.00;1.00;;;;;;;;;;10414207;28;20203;-70
2022/04/02 19:10:58;;;;;;;1.63;1.10;;;;;;;;;;10420443;28;20279;-73
2022/04/02 19:15:59;;;;;;;1.10;1.10;;;;;;;;;;10425275;28;20207;-73
2022/04/02 19:21:00;;;;;;;1.90;1.30;;;;;;;;;;10424006;28;20195;-73
2022/04/02 19:26:03;;;;;;;1.58;1.08;;;;;;;;;;10425034;28;20215;-74
2022/04/02 19:31:05;;;;;;;2.15;1.65;;;;;;;;;;10417278;28;20213;-73
2022/04/02 19:36:06;;;;;;;2.10;2.00;;;;;;;;;;10395932;28;20584;-73
2022/04/02 19:41:07;;;;;;;1.60;1.50;;;;;;;;;;10421589;28;20705;-73
2022/04/02 19:46:08;;;;;;;1.55;1.55;;;;;;;;;;10424499;28;20249;-73
2022/04/02 19:51:12;;;;;;;2.78;2.58;;;;;;;;;;10424472;28;20206;-73
2022/04/02 19:56:13;;;;;;;2.78;2.17;;;;;;;;;;10421630;28;20232;-73
2022/04/02 20:01:14;;;;;;;2.60;2.40;;;;;;;;;;10423671;28;20211;-73
2022/04/02 20:06:16;;;;;;;2.10;1.98;;;;;;;;;;10422628;28;20290;-74
2022/04/02 20:11:17;;;;;;;2.08;1.98;;;;;;;;;;10424664;28;20211;-72
2022/04/02 20:16:19;;;;;;;4.32;2.30;;;;;;;;;;10423549;28;20281;-72
2022/04/02 20:21:20;;;;;;;2.15;1.48;;;;;;;;;;10421193;28;20223;-72
2022/04/02 20:26:21;;;;;;;2.88;2.75;;;;;;;;;;10424428;28;20217;-71
2022/04/02 20:31:23;;;;;;;1.97;1.97;;;;;;;;;;10418746;28;20231;-72
2022/04/02 20:36:24;;;;;;;2.95;1.60;;;;;;;;;;10423810;28;20207;-72
2022/04/02 20:41:25;;;;;;;5.35;1.80;;;;;;;;;;10423884;28;20683;-73
2022/04/02 20:46:28;;;;;;;1.83;1.40;;;;;;;;;;10423303;28;20547;-72
2022/04/02 20:51:33;;;;;;;3.58;1.77;;;;;;;;;;10419947;28;20215;-72
2022/04/02 20:56:34;;;;;;;1.35;1.35;;;;;;;;;;10423136;28;20313;-72
2022/04/02 21:01:35;;;;;;;1.73;1.63;;;;;;;;;;10421891;28;20243;-72
2022/04/02 21:06:36;;;;;;;1.30;1.30;;;;;;;;;;10419591;28;20296;-72
2022/04/02 21:11:37;;;;;;;2.20;1.40;;;;;;;;;;10419371;28;20419;-72
2022/04/02 21:16:38;;;;;;;1.20;1.10;;;;;;;;;;10423445;28;20283;-72
2022/04/02 21:21:43;;;;;;;2.43;1.27;;;;;;;;;;10420692;28;20199;-72
2022/04/02 21:26:44;;;;;;;1.40;1.30;;;;;;;;;;10420716;28;20264;-72
2022/04/02 21:31:48;;;;;;;1.00;1.00;;;;;;;;;;10419593;28;20717;-74
2022/04/02 21:36:49;;;;;;;1.47;1.37;;;;;;;;;;10404237;28;20257;-73
2022/04/02 21:41:50;;;;;;;1.70;1.20;;;;;;;;;;10423780;28;20637;-72
2022/04/02 21:46:52;;;;;;;0.90;0.90;;;;;;;;;;10422842;28;20702;-71
2022/04/02 21:51:54;;;;;;;0.73;0.73;;;;;;;;;;10420873;28;20215;-72
2022/04/02 21:56:55;;;;;;;1.50;1.00;;;;;;;;;;10400456;28;20223;-71
2022/04/02 22:01:56;;;;;;;0.90;0.90;;;;;;;;;;10419416;28;20203;-72
2022/04/02 22:06:59;;;;;;;1.10;1.10;;;;;;;;;;10419647;28;20198;-72
2022/04/02 22:12:00;;;;;;;2.80;1.03;;;;;;;;;;10421325;28;20329;-71
2022/04/02 22:17:01;;;;;;;1.33;0.80;;;;;;;;;;10420419;28;20290;-71
2022/04/02 22:22:02;;;;;;;1.03;0.80;;;;;;;;;;10421159;28;20355;-71
2022/04/02 22:27:03;;;;;;;0.70;0.70;;;;;;;;;;10419239;28;20238;-71
2022/04/02 22:32:05;;;;;;;1.67;0.90;;;;;;;;;;10420647;28;20753;-71
2022/04/02 22:37:06;;;;;;;1.23;0.70;;;;;;;;;;10417290;28;20210;-70
2022/04/02 22:42:10;;;;;;;0.90;0.90;;;;;;;;;;10415227;28;20194;-70
2022/04/02 22:47:11;;;;;;;0.97;0.97;;;;;;;;;;10420725;28;20198;-71
2022/04/02 22:52:12;;;;;;;1.13;0.90;;;;;;;;;;10416570;28;20776;-72
2022/04/02 22:57:16;;;;;;;1.43;1.10;;;;;;;;;;10414675;28;20235;-72
2022/04/02 23:02:17;;;;;;;1.53;1.43;;;;;;;;;;10416500;28;20217;-72
2022/04/02 23:07:18;;;;;;;0.87;0.87;;;;;;;;;;10417808;28;20273;-71
2022/04/02 23:12:19;;;;;;;0.70;0.70;;;;;;;;;;10420378;28;20323;-72
2022/04/02 23:17:20;;;;;;;0.93;0.70;;;;;;;;;;10418965;28;20194;-71
2022/04/02 23:22:21;;;;;;;1.33;0.50;;;;;;;;;;10399849;28;20215;-72
2022/04/02 23:27:22;;;;;;;0.60;0.60;;;;;;;;;;10419170;28;20229;-71
2022/04/02 23:32:27;;;;;;;2.10;0.80;;;;;;;;;;10417115;28;20268;-71
2022/04/02 23:37:29;;;;;;;4.80;0.60;;;;;;;;;;10416512;28;20643;-71
2022/04/02 23:42:30;;;;;;;1.20;0.90;;;;;;;;;;10416234;28;20353;-71
2022/04/02 23:47:31;;;;;;;1.80;0.90;;;;;;;;;;10415217;28;20706;-71
2022/04/02 23:52:32;;;;;;;0.73;0.50;;;;;;;;;;10417256;28;20211;-72
2022/04/02 23:57:33;;;;;;;0.50;0.50;;;;;;;;;;10422224;28;20306;-71
